createdAt,value
2022-12-18T02:38:09.151Z,-4.88
2022-12-18T03:41:25.414Z,-5.06
2022-12-18T03:43:58.421Z,-5.08
2022-12-18T03:46:31.121Z,-5.11
2022-12-18T03:49:05.161Z,-5.14
2022-12-18T03:51:45.011Z,-5.16
2022-12-18T03:54:14.338Z,-5.18
2022-12-18T03:56:48.120Z,-5.19
2022-12-18T03:59:18.519Z,-5.19
2022-12-18T04:01:49.744Z,-5.20
2022-12-18T04:04:19.966Z,-5.22
2022-12-18T04:06:50.141Z,-5.21
2022-12-18T04:09:18.051Z,-5.19
2022-12-18T04:11:48.381Z,-5.18
2022-12-18T04:14:18.206Z,-5.19
2022-12-18T04:16:46.419Z,-5.19
2022-12-18T04:19:14.367Z,-5.18
2022-12-18T04:21:42.534Z,-5.22
2022-12-18T04:24:10.463Z,-5.24
2022-12-18T04:26:39.313Z,-5.22
2022-12-18T04:29:08.689Z,-5.21
2022-12-18T04:31:36.539Z,-5.22
2022-12-18T04:34:04.529Z,-5.23
2022-12-18T04:36:32.428Z,-5.23
2022-12-18T04:39:02.680Z,-5.25
2022-12-18T04:41:30.509Z,-5.25
2022-12-18T04:43:58.329Z,-5.23
2022-12-18T04:46:27.861Z,-5.22
2022-12-18T04:48:55.800Z,-5.23
2022-12-18T04:51:26.582Z,-5.22
2022-12-18T04:53:54.967Z,-5.22
2022-12-18T04:56:22.847Z,-5.25
2022-12-18T04:58:50.861Z,-5.27
2022-12-18T05:01:20.320Z,-5.27
2022-12-18T05:03:49.982Z,-5.25
2022-12-18T05:06:17.891Z,-5.25
2022-12-18T05:08:46.010Z,-5.26
2022-12-18T05:11:16.636Z,-5.27
2022-12-18T05:13:45.967Z,-5.27
2022-12-18T05:16:14.431Z,-5.27
2022-12-18T05:18:42.553Z,-5.28
2022-12-18T05:21:12.046Z,-5.31
2022-12-18T05:23:40.373Z,-5.31
2022-12-18T05:26:09.175Z,-5.29
2022-12-18T05:28:37.844Z,-5.30
2022-12-18T05:31:06.819Z,-5.30
2022-12-18T05:33:36.589Z,-5.31
2022-12-18T05:36:06.627Z,-5.31
2022-12-18T05:38:38.041Z,-5.28
2022-12-18T05:41:06.310Z,-5.30
2022-12-18T05:43:37.003Z,-5.33
2022-12-18T05:46:08.647Z,-5.34
2022-12-18T05:48:36.929Z,-5.36
2022-12-18T05:51:10.193Z,-5.39
2022-12-18T05:53:40.817Z,-5.39
2022-12-18T05:56:11.641Z,-5.38
2022-12-18T05:58:39.693Z,-5.38
2022-12-18T06:01:14.186Z,-5.36
2022-12-18T06:03:42.816Z,-5.36
2022-12-18T06:06:18.216Z,-5.40
2022-12-18T06:08:48.911Z,-5.41
2022-12-18T06:11:21.122Z,-5.43
2022-12-18T06:13:57.648Z,-5.46
2022-12-18T06:16:26.493Z,-5.48
2022-12-18T06:18:54.371Z,-5.47
2022-12-18T06:21:22.338Z,-5.48
2022-12-18T06:23:51.616Z,-5.46
2022-12-18T06:26:22.144Z,-5.50
2022-12-18T06:28:53.950Z,-5.53
2022-12-18T06:31:21.841Z,-5.58
2022-12-18T06:33:49.765Z,-5.60
2022-12-18T06:36:17.989Z,-5.59
2022-12-18T06:38:46.696Z,-5.59
2022-12-18T06:41:17.709Z,-5.59
2022-12-18T06:43:46.260Z,-5.60
2022-12-18T06:46:15.005Z,-5.63
2022-12-18T06:48:42.976Z,-5.63
2022-12-18T06:51:10.790Z,-5.60
2022-12-18T06:53:38.817Z,-5.59
2022-12-18T06:56:10.935Z,-5.59
2022-12-18T06:58:40.735Z,-5.59
2022-12-18T07:01:11.466Z,-5.59
2022-12-18T07:03:39.974Z,-5.61
2022-12-18T07:06:14.590Z,-5.63
2022-12-18T07:08:42.387Z,-5.63
2022-12-18T07:11:10.141Z,-5.63
2022-12-18T07:13:38.306Z,-5.64
2022-12-18T07:16:17.141Z,-5.64
2022-12-18T07:18:48.938Z,-5.64
2022-12-18T07:21:19.139Z,-5.67
2022-12-18T07:23:48.932Z,-5.63
2022-12-18T07:26:20.854Z,-5.64
2022-12-18T07:28:49.562Z,-5.63
2022-12-18T07:31:21.618Z,-5.61
2022-12-18T07:33:49.771Z,-5.62
2022-12-18T07:36:17.645Z,-5.63
2022-12-18T07:38:45.533Z,-5.63
2022-12-18T07:41:15.633Z,-5.63
2022-12-18T07:43:44.545Z,-5.62
2022-12-18T07:46:14.928Z,-5.59
2022-12-18T07:48:49.732Z,-5.61
2022-12-18T07:51:19.028Z,-5.58
2022-12-18T07:53:49.341Z,-5.50
2022-12-18T07:56:29.573Z,-5.46
2022-12-18T07:58:58.823Z,-5.44
2022-12-18T08:01:27.100Z,-5.39
2022-12-18T08:03:59.942Z,-5.34
2022-12-18T08:06:28.148Z,-5.30
2022-12-18T08:08:57.569Z,-5.30
2022-12-18T08:11:27.490Z,-5.33
2022-12-18T08:13:56.103Z,-5.31
2022-12-18T08:16:27.019Z,-5.29
2022-12-18T08:18:56.708Z,-5.25
2022-12-18T08:21:27.365Z,-5.23
2022-12-18T08:23:56.523Z,-5.16
2022-12-18T08:26:25.633Z,-5.09
2022-12-18T08:28:56.932Z,-5.02
2022-12-18T08:31:25.274Z,-4.94
2022-12-18T08:33:56.320Z,-4.88
2022-12-18T08:36:27.544Z,-4.82
2022-12-18T08:38:58.526Z,-4.76
2022-12-18T08:41:26.961Z,-4.70
2022-12-18T08:44:11.774Z,-4.61
2022-12-18T08:46:41.758Z,-4.52
2022-12-18T08:49:11.243Z,-4.48
2022-12-18T08:51:41.419Z,-4.42
2022-12-18T08:54:09.419Z,-4.33
2022-12-18T08:56:37.992Z,-4.28
2022-12-18T08:59:07.702Z,-4.20
2022-12-18T09:01:37.349Z,-4.14
2022-12-18T09:04:05.640Z,-4.07
2022-12-18T09:06:38.749Z,-4.00
2022-12-18T09:09:08.871Z,-3.91
2022-12-18T09:11:36.848Z,-3.85
2022-12-18T09:14:04.782Z,-3.82
2022-12-18T09:16:36.071Z,-3.75
2022-12-18T09:19:06.860Z,-3.69
2022-12-18T09:21:37.447Z,-3.60
2022-12-18T09:24:13.677Z,-3.51
2022-12-18T09:27:22.660Z,-3.36
2022-12-18T09:31:00.443Z,-3.29
2022-12-18T09:37:05.039Z,-3.17
2022-12-18T09:41:12.219Z,-3.06
2022-12-18T09:43:50.345Z,-2.94
2022-12-18T09:49:46.473Z,-2.76
2022-12-18T09:52:22.089Z,-2.69
2022-12-18T09:58:45.351Z,-2.54
2022-12-18T10:01:23.047Z,-2.47
2022-12-18T10:04:26.683Z,-2.34
2022-12-18T10:07:18.428Z,-2.20
2022-12-18T10:10:04.732Z,-2.08
2022-12-18T10:12:51.991Z,-1.96
2022-12-18T10:16:17.200Z,-1.86
2022-12-18T10:19:11.266Z,-1.71
2022-12-18T10:22:04.019Z,-1.60
2022-12-18T10:24:36.136Z,-1.48
2022-12-18T10:27:15.887Z,-1.38
2022-12-18T10:29:48.717Z,-1.29
2022-12-18T10:32:19.314Z,-1.23
2022-12-18T10:34:56.618Z,-1.15
2022-12-18T10:37:36.550Z,-1.04
2022-12-18T10:40:20.151Z,-0.96
2022-12-18T10:43:06.510Z,-0.88
2022-12-18T10:45:34.533Z,-0.79
2022-12-18T10:48:03.213Z,-0.68
2022-12-18T10:51:09.297Z,-0.63
2022-12-18T10:53:27.053Z,-0.62
2022-12-18T10:55:57.362Z,-0.57
2022-12-18T10:58:43.676Z,-0.55
2022-12-18T11:01:22.462Z,-0.50
2022-12-18T11:04:07.031Z,-0.42
2022-12-18T11:06:58.904Z,-0.30
2022-12-18T12:25:48.542Z,1.74
2022-12-18T12:28:29.020Z,1.75
2022-12-18T15:23:30.356Z,1.90
2022-12-18T15:25:59.694Z,1.93
2022-12-18T15:28:30.406Z,1.96
2022-12-18T15:31:07.601Z,1.97
2022-12-18T15:33:38.818Z,1.97
2022-12-18T15:36:11.137Z,1.97
2022-12-18T15:38:40.581Z,1.97
2022-12-18T15:41:14.371Z,1.94
2022-12-18T15:43:42.080Z,1.97
2022-12-18T15:46:15.088Z,1.97
2022-12-18T15:48:44.837Z,1.98
2022-12-18T15:51:17.191Z,2.02
2022-12-18T15:53:47.972Z,2.02
2022-12-18T15:56:35.195Z,2.02
2022-12-18T15:59:04.513Z,1.99
2022-12-18T16:01:36.112Z,1.97
2022-12-18T16:04:07.557Z,1.97
2022-12-18T16:06:45.183Z,1.92
2022-12-18T16:09:26.532Z,1.90
2022-12-18T16:11:56.298Z,1.82
2022-12-18T16:14:27.126Z,1.79
2022-12-18T16:16:57.709Z,1.85
2022-12-18T16:19:26.798Z,1.80
2022-12-18T16:22:02.022Z,1.83
2022-12-18T16:24:45.214Z,1.84
2022-12-18T16:27:22.077Z,1.80
2022-12-18T16:29:51.009Z,1.79
2022-12-18T16:32:21.399Z,1.79
2022-12-18T16:34:52.361Z,1.80
2022-12-18T16:37:20.501Z,1.77
2022-12-18T16:39:50.069Z,1.75
2022-12-18T16:42:20.526Z,1.77
2022-12-18T16:44:50.781Z,1.77
2022-12-18T16:47:44.944Z,1.78
2022-12-18T16:50:31.468Z,1.77
2022-12-18T16:53:16.897Z,1.72
2022-12-18T16:56:16.539Z,1.73
2022-12-18T16:58:52.520Z,1.72
2022-12-18T17:01:29.542Z,1.69
2022-12-18T17:04:21.950Z,1.72
2022-12-18T17:07:07.713Z,1.68
2022-12-18T17:10:10.843Z,1.69
2022-12-18T17:12:55.520Z,1.67
2022-12-18T17:15:42.409Z,1.66
2022-12-18T17:18:36.155Z,1.65
2022-12-18T17:21:36.940Z,1.71
2022-12-18T17:25:13.021Z,1.69
2022-12-18T17:27:26.670Z,1.68
2022-12-18T17:29:56.604Z,1.69
2022-12-18T17:32:25.959Z,1.69
2022-12-18T17:34:53.829Z,1.66
2022-12-18T17:37:30.363Z,1.64
2022-12-18T17:44:07.912Z,1.62
2022-12-18T17:46:46.623Z,1.60
2022-12-18T17:53:24.290Z,1.61
2022-12-18T17:56:37.581Z,1.61
2022-12-18T18:03:25.347Z,1.61
2022-12-18T18:05:58.730Z,1.58
2022-12-18T18:08:27.323Z,1.58
2022-12-18T18:22:34.696Z,1.49
2022-12-18T19:09:14.743Z,1.42
2022-12-18T19:12:38.409Z,1.44
2022-12-18T19:18:49.142Z,1.44
2022-12-18T19:21:34.084Z,1.45
2022-12-18T19:26:27.007Z,1.48
2022-12-18T19:35:08.648Z,1.55
2022-12-18T19:47:45.652Z,1.54
2022-12-18T20:31:26.484Z,1.83
2022-12-18T20:34:40.541Z,1.84
2022-12-18T20:37:48.661Z,1.85
2022-12-18T20:41:39.114Z,1.86
2022-12-18T20:48:27.646Z,1.88
2022-12-18T20:51:20.907Z,1.84
2022-12-18T20:59:18.169Z,1.90
2022-12-18T21:28:10.537Z,1.90
2022-12-18T22:37:04.827Z,2.09
